sensor_id;sensor_type;location;lat;lon;timestamp;pressure;altitude;pressure_sealevel;temperature;humidity
32452;BME280;45528;52.102;5.242;2022-12-15T00:38:55;100244.0;;;1.02;55.36
32452;BME280;45528;52.102;5.242;2022-12-15T00:40:31;100250.0;;;0.91;55.7
32452;BME280;45528;52.102;5.242;2022-12-15T00:42:08;100250.0;;;0.92;55.73
32452;BME280;45528;52.102;5.242;2022-12-15T00:46:53;100251.0;;;0.91;55.71
32452;BME280;45528;52.102;5.242;2022-12-15T00:48:29;100255.0;;;0.91;55.8
32452;BME280;45528;52.102;5.242;2022-12-15T01:21:54;100274.0;;;0.68;55.56
32452;BME280;45528;52.102;5.242;2022-12-15T01:25:08;100280.0;;;0.64;55.53
32452;BME280;45528;52.102;5.242;2022-12-15T01:26:45;100284.0;;;0.58;55.61
32452;BME280;45528;52.102;5.242;2022-12-15T01:28:22;100281.0;;;0.58;55.83
32452;BME280;45528;52.102;5.242;2022-12-15T01:29:59;100282.0;;;0.6;55.72
32452;BME280;45528;52.102;5.242;2022-12-15T01:33:13;100285.0;;;0.58;55.71
32452;BME280;45528;52.102;5.242;2022-12-15T01:34:52;100282.0;;;0.51;55.87
32452;BME280;45528;52.102;5.242;2022-12-15T01:36:28;100284.0;;;0.51;55.43
32452;BME280;45528;52.102;5.242;2022-12-15T01:40:50;100287.0;;;0.58;55.41
32452;BME280;45528;52.102;5.242;2022-12-15T01:42:26;100288.0;;;0.62;55.64
32452;BME280;45528;52.102;5.242;2022-12-15T01:44:15;100292.0;;;0.58;55.65
32452;BME280;45528;52.102;5.242;2022-12-15T01:46:02;100293.0;;;0.58;55.78
32452;BME280;45528;52.102;5.242;2022-12-15T01:47:40;100301.0;;;0.59;55.53
32452;BME280;45528;52.102;5.242;2022-12-15T01:49:21;100293.0;;;0.67;55.95
32452;BME280;45528;52.102;5.242;2022-12-15T01:51:09;100299.0;;;0.6;55.78
32452;BME280;45528;52.102;5.242;2022-12-15T01:54:27;100299.0;;;0.61;55.77
32452;BME280;45528;52.102;5.242;2022-12-15T01:56:07;100300.0;;;0.66;55.71
32452;BME280;45528;52.102;5.242;2022-12-15T01:57:45;100311.0;;;0.69;55.36
32452;BME280;45528;52.102;5.242;2022-12-15T01:59:27;100305.0;;;0.68;55.56
32452;BME280;45528;52.102;5.242;2022-12-15T02:02:44;100302.0;;;0.61;55.69
32452;BME280;45528;52.102;5.242;2022-12-15T02:04:21;100306.0;;;0.61;55.57
32452;BME280;45528;52.102;5.242;2022-12-15T02:05:59;100308.0;;;0.64;55.68
32452;BME280;45528;52.102;5.242;2022-12-15T02:07:38;100306.0;;;0.59;55.75
32452;BME280;45528;52.102;5.242;2022-12-15T02:11:03;100307.0;;;0.58;55.6
32452;BME280;45528;52.102;5.242;2022-12-15T02:12:52;100302.0;;;0.58;55.97
32452;BME280;45528;52.102;5.242;2022-12-15T02:14:44;100301.0;;;0.58;55.85
32452;BME280;45528;52.102;5.242;2022-12-15T02:16:34;100298.0;;;0.53;55.84
32452;BME280;45528;52.102;5.242;2022-12-15T02:18:21;100308.0;;;0.54;56.12
32452;BME280;45528;52.102;5.242;2022-12-15T02:22:19;100309.0;;;0.52;55.2
32452;BME280;45528;52.102;5.242;2022-12-15T02:24:18;100305.0;;;0.52;55.72
32452;BME280;45528;52.102;5.242;2022-12-15T02:26:50;100305.0;;;0.56;55.87
32452;BME280;45528;52.102;5.242;2022-12-15T02:29:15;100306.0;;;0.58;55.86
32452;BME280;45528;52.102;5.242;2022-12-15T02:32:07;100310.0;;;0.58;55.71
32452;BME280;45528;52.102;5.242;2022-12-15T02:33:51;100313.0;;;0.56;55.63
32452;BME280;45528;52.102;5.242;2022-12-15T02:35:33;100308.0;;;0.5;55.52
32452;BME280;45528;52.102;5.242;2022-12-15T02:37:18;100310.0;;;0.47;55.89
32452;BME280;45528;52.102;5.242;2022-12-15T02:40:35;100310.0;;;0.4;55.67
32452;BME280;45528;52.102;5.242;2022-12-15T02:42:12;100313.0;;;0.46;55.9
32452;BME280;45528;52.102;5.242;2022-12-15T02:43:49;100311.0;;;0.47;55.76
32452;BME280;45528;52.102;5.242;2022-12-15T02:45:31;100312.0;;;0.45;55.32
32452;BME280;45528;52.102;5.242;2022-12-15T02:49:12;100310.0;;;0.38;55.94
32452;BME280;45528;52.102;5.242;2022-12-15T02:51:07;100305.0;;;0.41;55.47
32452;BME280;45528;52.102;5.242;2022-12-15T02:52:56;100308.0;;;0.42;55.61
32452;BME280;45528;52.102;5.242;2022-12-15T02:54:49;100311.0;;;0.42;55.05
32452;BME280;45528;52.102;5.242;2022-12-15T02:56:37;100309.0;;;0.39;55.53
32452;BME280;45528;52.102;5.242;2022-12-15T02:58:26;100320.0;;;0.41;55.53
32452;BME280;45528;52.102;5.242;2022-12-15T03:00:06;100316.0;;;0.43;55.55
32452;BME280;45528;52.102;5.242;2022-12-15T03:03:30;100320.0;;;0.46;55.49
32452;BME280;45528;52.102;5.242;2022-12-15T03:05:08;100319.0;;;0.41;55.32
32452;BME280;45528;52.102;5.242;2022-12-15T03:06:44;100318.0;;;0.4;55.33
32452;BME280;45528;52.102;5.242;2022-12-15T03:08:28;100319.0;;;0.41;55.47
32452;BME280;45528;52.102;5.242;2022-12-15T03:11:42;100317.0;;;0.38;55.42
32452;BME280;45528;52.102;5.242;2022-12-15T03:13:18;100318.0;;;0.33;55.75
32452;BME280;45528;52.102;5.242;2022-12-15T03:14:55;100319.0;;;0.36;56.06
32452;BME280;45528;52.102;5.242;2022-12-15T03:18:08;100325.0;;;0.33;55.79
32452;BME280;45528;52.102;5.242;2022-12-15T03:19:44;100332.0;;;0.32;55.85
32452;BME280;45528;52.102;5.242;2022-12-15T03:21:21;100332.0;;;0.4;55.67
32452;BME280;45528;52.102;5.242;2022-12-15T03:22:57;100322.0;;;0.36;55.75
32452;BME280;45528;52.102;5.242;2022-12-15T03:26:10;100325.0;;;0.32;56.11
32452;BME280;45528;52.102;5.242;2022-12-15T03:27:47;100333.0;;;0.38;55.66
32452;BME280;45528;52.102;5.242;2022-12-15T03:29:23;100340.0;;;0.44;56.04
32452;BME280;45528;52.102;5.242;2022-12-15T03:32:35;100335.0;;;0.36;56.49
32452;BME280;45528;52.102;5.242;2022-12-15T03:34:11;100334.0;;;0.45;56.33
32452;BME280;45528;52.102;5.242;2022-12-15T03:35:48;100347.0;;;0.45;55.81
32452;BME280;45528;52.102;5.242;2022-12-15T03:39:01;100340.0;;;0.6;55.83
32452;BME280;45528;52.102;5.242;2022-12-15T03:40:38;100341.0;;;0.46;55.9
32452;BME280;45528;52.102;5.242;2022-12-15T03:42:47;100344.0;;;0.48;55.88
32452;BME280;45528;52.102;5.242;2022-12-15T03:44:22;100341.0;;;0.51;55.9
32452;BME280;45528;52.102;5.242;2022-12-15T03:45:58;100344.0;;;0.47;55.79
32452;BME280;45528;52.102;5.242;2022-12-15T03:49:15;100347.0;;;0.48;55.91
32452;BME280;45528;52.102;5.242;2022-12-15T03:50:51;100343.0;;;0.5;55.92
32452;BME280;45528;52.102;5.242;2022-12-15T03:52:27;100347.0;;;0.54;56.0
32452;BME280;45528;52.102;5.242;2022-12-15T03:55:42;100347.0;;;0.53;56.06
32452;BME280;45528;52.102;5.242;2022-12-15T03:57:18;100348.0;;;0.49;55.77
32452;BME280;45528;52.102;5.242;2022-12-15T03:58:54;100349.0;;;0.45;55.88
32452;BME280;45528;52.102;5.242;2022-12-15T04:02:08;100340.0;;;0.33;55.38
32452;BME280;45528;52.102;5.242;2022-12-15T04:03:46;100344.0;;;0.39;55.7
32452;BME280;45528;52.102;5.242;2022-12-15T04:05:24;100338.0;;;0.42;55.76
32452;BME280;45528;52.102;5.242;2022-12-15T04:07:01;100338.0;;;0.38;55.71
32452;BME280;45528;52.102;5.242;2022-12-15T04:10:14;100340.0;;;0.35;55.69
32452;BME280;45528;52.102;5.242;2022-12-15T04:11:50;100342.0;;;0.32;55.9
32452;BME280;45528;52.102;5.242;2022-12-15T04:13:26;100348.0;;;0.31;55.62
32452;BME280;45528;52.102;5.242;2022-12-15T04:16:40;100346.0;;;0.35;55.96
32452;BME280;45528;52.102;5.242;2022-12-15T04:18:16;100345.0;;;0.31;55.42
32452;BME280;45528;52.102;5.242;2022-12-15T04:20:24;100346.0;;;0.35;55.96
32452;BME280;45528;52.102;5.242;2022-12-15T04:22:02;100360.0;;;0.32;55.33
32452;BME280;45528;52.102;5.242;2022-12-15T04:23:38;100361.0;;;0.31;55.77
32452;BME280;45528;52.102;5.242;2022-12-15T05:31:59;100369.0;;;0.31;56.04
32452;BME280;45528;52.102;5.242;2022-12-15T05:33:48;100369.0;;;0.31;55.87
32452;BME280;45528;52.102;5.242;2022-12-15T05:35:24;100370.0;;;0.29;55.92
32452;BME280;45528;52.102;5.242;2022-12-15T05:37:01;100372.0;;;0.25;55.82
32452;BME280;45528;52.102;5.242;2022-12-15T05:40:14;100371.0;;;0.3;55.85
32452;BME280;45528;52.102;5.242;2022-12-15T05:41:51;100368.0;;;0.33;55.98
32452;BME280;45528;52.102;5.242;2022-12-15T05:43:29;100364.0;;;0.27;55.87
32452;BME280;45528;52.102;5.242;2022-12-15T05:46:43;100363.0;;;0.3;55.85
32452;BME280;45528;52.102;5.242;2022-12-15T05:48:19;100367.0;;;0.27;55.54
32452;BME280;45528;52.102;5.242;2022-12-15T05:49:55;100367.0;;;0.26;55.43
32452;BME280;45528;52.102;5.242;2022-12-15T05:51:33;100368.0;;;0.24;55.68
32452;BME280;45528;52.102;5.242;2022-12-15T05:54:48;100375.0;;;0.23;55.72
32452;BME280;45528;52.102;5.242;2022-12-15T05:56:26;100382.0;;;0.2;55.67
32452;BME280;45528;52.102;5.242;2022-12-15T05:58:03;100389.0;;;0.16;56.04
32452;BME280;45528;52.102;5.242;2022-12-15T06:01:17;100392.0;;;0.2;56.2
32452;BME280;45528;52.102;5.242;2022-12-15T06:02:54;100400.0;;;0.24;56.24
32452;BME280;45528;52.102;5.242;2022-12-15T06:04:30;100405.0;;;0.29;56.05
32452;BME280;45528;52.102;5.242;2022-12-15T06:07:45;100405.0;;;0.29;55.94
32452;BME280;45528;52.102;5.242;2022-12-15T06:09:21;100407.0;;;0.27;55.97
32452;BME280;45528;52.102;5.242;2022-12-15T06:10:58;100405.0;;;0.24;55.83
32452;BME280;45528;52.102;5.242;2022-12-15T06:12:36;100405.0;;;0.23;55.89
32452;BME280;45528;52.102;5.242;2022-12-15T06:15:56;100405.0;;;0.22;55.98
32452;BME280;45528;52.102;5.242;2022-12-15T06:17:33;100401.0;;;0.23;55.8
32452;BME280;45528;52.102;5.242;2022-12-15T06:19:10;100408.0;;;0.25;55.69
32452;BME280;45528;52.102;5.242;2022-12-15T06:22:22;100407.0;;;0.25;55.71
32452;BME280;45528;52.102;5.242;2022-12-15T06:24:00;100409.0;;;0.27;55.54
32452;BME280;45528;52.102;5.242;2022-12-15T06:25:37;100409.0;;;0.23;55.51
32452;BME280;45528;52.102;5.242;2022-12-15T06:27:13;100412.0;;;0.26;55.64
32452;BME280;45528;52.102;5.242;2022-12-15T06:30:26;100409.0;;;0.22;55.49
32452;BME280;45528;52.102;5.242;2022-12-15T06:32:03;100408.0;;;0.19;55.61
32452;BME280;45528;52.102;5.242;2022-12-15T06:33:40;100411.0;;;0.21;55.58
32452;BME280;45528;52.102;5.242;2022-12-15T06:36:53;100405.0;;;0.19;55.71
32452;BME280;45528;52.102;5.242;2022-12-15T06:38:30;100411.0;;;0.2;55.89
32452;BME280;45528;52.102;5.242;2022-12-15T06:40:08;100406.0;;;0.19;55.6
32452;BME280;45528;52.102;5.242;2022-12-15T06:41:44;100407.0;;;0.22;55.71
32452;BME280;45528;52.102;5.242;2022-12-15T06:44:56;100413.0;;;0.27;55.64
32452;BME280;45528;52.102;5.242;2022-12-15T06:46:33;100411.0;;;0.25;55.62
32452;BME280;45528;52.102;5.242;2022-12-15T06:48:09;100413.0;;;0.26;55.72
32452;BME280;45528;52.102;5.242;2022-12-15T06:51:25;100421.0;;;0.21;55.49
32452;BME280;45528;52.102;5.242;2022-12-15T06:53:03;100418.0;;;0.24;55.59
32452;BME280;45528;52.102;5.242;2022-12-15T06:54:39;100417.0;;;0.23;55.59
32452;BME280;45528;52.102;5.242;2022-12-15T06:57:55;100416.0;;;0.06;56.17
32452;BME280;45528;52.102;5.242;2022-12-15T06:59:31;100412.0;;;0.22;56.12
32452;BME280;45528;52.102;5.242;2022-12-15T07:01:07;100415.0;;;0.31;55.74
32452;BME280;45528;52.102;5.242;2022-12-15T07:02:43;100414.0;;;0.35;55.95
32452;BME280;45528;52.102;5.242;2022-12-15T07:06:00;100409.0;;;0.31;56.1
32452;BME280;45528;52.102;5.242;2022-12-15T07:07:37;100417.0;;;0.31;56.13
32452;BME280;45528;52.102;5.242;2022-12-15T07:09:15;100417.0;;;0.29;56.19
32452;BME280;45528;52.102;5.242;2022-12-15T07:12:28;100415.0;;;0.29;55.73
32452;BME280;45528;52.102;5.242;2022-12-15T07:14:04;100414.0;;;0.3;55.8
32452;BME280;45528;52.102;5.242;2022-12-15T07:15:40;100418.0;;;0.29;55.65
32452;BME280;45528;52.102;5.242;2022-12-15T07:18:54;100413.0;;;0.32;55.9
32452;BME280;45528;52.102;5.242;2022-12-15T07:20:30;100418.0;;;0.34;55.67
32452;BME280;45528;52.102;5.242;2022-12-15T07:22:07;100424.0;;;0.36;55.83
32452;BME280;45528;52.102;5.242;2022-12-15T07:23:43;100427.0;;;0.36;55.54
32452;BME280;45528;52.102;5.242;2022-12-15T07:26:58;100434.0;;;0.38;55.92
32452;BME280;45528;52.102;5.242;2022-12-15T07:28:36;100436.0;;;0.39;56.07
32452;BME280;45528;52.102;5.242;2022-12-15T07:30:14;100434.0;;;0.48;56.05
32452;BME280;45528;52.102;5.242;2022-12-15T07:33:27;100439.0;;;0.43;56.25
32452;BME280;45528;52.102;5.242;2022-12-15T07:35:05;100437.0;;;0.48;56.31
32452;BME280;45528;52.102;5.242;2022-12-15T07:36:42;100437.0;;;0.42;56.21
32452;BME280;45528;52.102;5.242;2022-12-15T07:38:18;100443.0;;;0.51;56.35
32452;BME280;45528;52.102;5.242;2022-12-15T07:41:30;100443.0;;;0.6;56.4
32452;BME280;45528;52.102;5.242;2022-12-15T07:43:06;100455.0;;;0.58;56.24
32452;BME280;45528;52.102;5.242;2022-12-15T07:44:42;100450.0;;;0.63;56.2
32452;BME280;45528;52.102;5.242;2022-12-15T07:47:55;100450.0;;;0.6;56.16
32452;BME280;45528;52.102;5.242;2022-12-15T07:49:31;100450.0;;;0.6;56.14
32452;BME280;45528;52.102;5.242;2022-12-15T07:51:07;100448.0;;;0.59;55.95
32452;BME280;45528;52.102;5.242;2022-12-15T07:54:22;100449.0;;;0.62;56.05
32452;BME280;45528;52.102;5.242;2022-12-15T07:56:00;100450.0;;;0.66;55.86
32452;BME280;45528;52.102;5.242;2022-12-15T07:57:38;100458.0;;;0.66;55.78
32452;BME280;45528;52.102;5.242;2022-12-15T07:59:16;100455.0;;;0.69;56.1
32452;BME280;45528;52.102;5.242;2022-12-15T08:02:29;100455.0;;;0.71;56.07
32452;BME280;45528;52.102;5.242;2022-12-15T08:04:06;100458.0;;;0.68;55.99
32452;BME280;45528;52.102;5.242;2022-12-15T08:05:43;100457.0;;;0.71;55.96
32452;BME280;45528;52.102;5.242;2022-12-15T08:08:57;100463.0;;;0.68;56.05
32452;BME280;45528;52.102;5.242;2022-12-15T08:10:37;100461.0;;;0.72;55.91
32452;BME280;45528;52.102;5.242;2022-12-15T08:12:13;100458.0;;;0.75;56.1
32452;BME280;45528;52.102;5.242;2022-12-15T08:13:49;100458.0;;;0.69;55.67
32452;BME280;45528;52.102;5.242;2022-12-15T08:17:02;100462.0;;;0.76;55.83
32452;BME280;45528;52.102;5.242;2022-12-15T08:18:38;100463.0;;;0.78;56.06
32452;BME280;45528;52.102;5.242;2022-12-15T08:20:15;100461.0;;;0.78;55.87
32452;BME280;45528;52.102;5.242;2022-12-15T08:23:28;100459.0;;;0.82;56.13
32452;BME280;45528;52.102;5.242;2022-12-15T08:25:05;100463.0;;;0.86;56.11
32452;BME280;45528;52.102;5.242;2022-12-15T08:26:43;100467.0;;;0.92;56.01
32452;BME280;45528;52.102;5.242;2022-12-15T08:29:55;100473.0;;;0.94;56.03
32452;BME280;45528;52.102;5.242;2022-12-15T08:31:32;100472.0;;;1.01;56.02
32452;BME280;45528;52.102;5.242;2022-12-15T08:33:10;100480.0;;;1.04;56.11
32452;BME280;45528;52.102;5.242;2022-12-15T08:34:46;100476.0;;;1.14;56.17
32452;BME280;45528;52.102;5.242;2022-12-15T08:38:01;100480.0;;;1.2;56.44
32452;BME280;45528;52.102;5.242;2022-12-15T08:39:36;100477.0;;;1.29;56.35
32452;BME280;45528;52.102;5.242;2022-12-15T08:41:15;100477.0;;;1.3;56.52
32452;BME280;45528;52.102;5.242;2022-12-15T08:44:29;100481.0;;;1.41;56.48
32452;BME280;45528;52.102;5.242;2022-12-15T08:46:05;100485.0;;;1.55;56.31
32452;BME280;45528;52.102;5.242;2022-12-15T08:47:42;100489.0;;;1.62;56.31
32452;BME280;45528;52.102;5.242;2022-12-15T08:50:55;100488.0;;;1.66;56.37
32452;BME280;45528;52.102;5.242;2022-12-15T08:52:32;100490.0;;;1.77;56.41
32452;BME280;45528;52.102;5.242;2022-12-15T08:54:09;100489.0;;;1.91;56.19
32452;BME280;45528;52.102;5.242;2022-12-15T08:55:45;100498.0;;;1.98;56.38
32452;BME280;45528;52.102;5.242;2022-12-15T08:58:59;100494.0;;;2.11;56.56
32452;BME280;45528;52.102;5.242;2022-12-15T09:00:36;100490.0;;;2.21;56.66
32452;BME280;45528;52.102;5.242;2022-12-15T09:02:12;100496.0;;;2.32;56.81
32452;BME280;45528;52.102;5.242;2022-12-15T09:05:26;100498.0;;;2.5;56.62
32452;BME280;45528;52.102;5.242;2022-12-15T09:07:02;100496.0;;;2.56;56.52
32452;BME280;45528;52.102;5.242;2022-12-15T09:08:39;100496.0;;;2.6;56.84
32452;BME280;45528;52.102;5.242;2022-12-15T09:11:52;100498.0;;;2.77;56.55
32452;BME280;45528;52.102;5.242;2022-12-15T09:13:28;100499.0;;;2.88;56.45
32452;BME280;45528;52.102;5.242;2022-12-15T09:15:06;100499.0;;;2.96;56.27
32452;BME280;45528;52.102;5.242;2022-12-15T09:16:43;100495.0;;;3.14;56.26
32452;BME280;45528;52.102;5.242;2022-12-15T09:19:55;100492.0;;;3.2;56.11
32452;BME280;45528;52.102;5.242;2022-12-15T09:21:31;100494.0;;;3.23;55.79
32452;BME280;45528;52.102;5.242;2022-12-15T09:23:07;100499.0;;;3.36;55.79
32452;BME280;45528;52.102;5.242;2022-12-15T09:26:22;100502.0;;;3.41;55.84
32452;BME280;45528;52.102;5.242;2022-12-15T09:27:58;100512.0;;;3.5;55.9
32452;BME280;45528;52.102;5.242;2022-12-15T09:29:35;100516.0;;;3.49;56.26
32452;BME280;45528;52.102;5.242;2022-12-15T09:32:50;100519.0;;;3.54;56.27
32452;BME280;45528;52.102;5.242;2022-12-15T09:34:26;100519.0;;;3.56;56.42
32452;BME280;45528;52.102;5.242;2022-12-15T09:36:04;100513.0;;;3.73;56.4
32452;BME280;45528;52.102;5.242;2022-12-15T09:37:41;100513.0;;;3.9;55.95
32452;BME280;45528;52.102;5.242;2022-12-15T09:40:54;100512.0;;;3.81;56.35
32452;BME280;45528;52.102;5.242;2022-12-15T09:42:30;100515.0;;;3.91;56.07
32452;BME280;45528;52.102;5.242;2022-12-15T09:44:11;100521.0;;;3.99;55.99
32452;BME280;45528;52.102;5.242;2022-12-15T09:47:41;100521.0;;;4.12;55.87
32452;BME280;45528;52.102;5.242;2022-12-15T09:49:34;100525.0;;;4.18;55.83
32452;BME280;45528;52.102;5.242;2022-12-15T09:51:19;100526.0;;;4.3;55.52
32452;BME280;45528;52.102;5.242;2022-12-15T09:53:09;100534.0;;;4.41;55.18
32452;BME280;45528;52.102;5.242;2022-12-15T09:54:47;100533.0;;;4.53;55.15
32452;BME280;45528;52.102;5.242;2022-12-15T09:56:31;100530.0;;;4.62;54.93
32452;BME280;45528;52.102;5.242;2022-12-15T10:00:13;100537.0;;;4.7;54.92
32452;BME280;45528;52.102;5.242;2022-12-15T10:01:59;100539.0;;;4.59;55.14
32452;BME280;45528;52.102;5.242;2022-12-15T10:03:55;100542.0;;;4.74;55.05
32452;BME280;45528;52.102;5.242;2022-12-15T10:05:45;100548.0;;;4.78;54.69
32452;BME280;45528;52.102;5.242;2022-12-15T10:07:32;100552.0;;;4.74;55.0
32452;BME280;45528;52.102;5.242;2022-12-15T10:09:15;100547.0;;;4.83;54.88
32452;BME280;45528;52.102;5.242;2022-12-15T10:12:36;100555.0;;;4.7;55.22
32452;BME280;45528;52.102;5.242;2022-12-15T10:14:20;100548.0;;;4.83;54.82
32452;BME280;45528;52.102;5.242;2022-12-15T10:16:02;100548.0;;;4.78;55.09
32452;BME280;45528;52.102;5.242;2022-12-15T10:17:45;100546.0;;;4.78;55.04
32452;BME280;45528;52.102;5.242;2022-12-15T10:19:30;100548.0;;;5.01;54.85
32452;BME280;45528;52.102;5.242;2022-12-15T10:22:47;100540.0;;;4.99;54.91
32452;BME280;45528;52.102;5.242;2022-12-15T10:24:28;100538.0;;;5.05;54.86
32452;BME280;45528;52.102;5.242;2022-12-15T10:26:17;100539.0;;;5.07;55.11
32452;BME280;45528;52.102;5.242;2022-12-15T10:28:06;100536.0;;;5.03;55.2
32452;BME280;45528;52.102;5.242;2022-12-15T10:30:00;100534.0;;;5.17;54.94
32452;BME280;45528;52.102;5.242;2022-12-15T10:33:27;100537.0;;;5.3;55.09
32452;BME280;45528;52.102;5.242;2022-12-15T10:35:14;100539.0;;;5.32;54.84
32452;BME280;45528;52.102;5.242;2022-12-15T10:36:53;100547.0;;;5.44;54.85
32452;BME280;45528;52.102;5.242;2022-12-15T10:38:33;100547.0;;;5.55;54.46
32452;BME280;45528;52.102;5.242;2022-12-15T10:42:25;100549.0;;;5.6;54.62
32452;BME280;45528;52.102;5.242;2022-12-15T10:44:02;100551.0;;;5.61;54.83
32452;BME280;45528;52.102;5.242;2022-12-15T10:45:39;100548.0;;;5.79;55.03
32452;BME280;45528;52.102;5.242;2022-12-15T10:47:19;100551.0;;;5.87;54.7
32452;BME280;45528;52.102;5.242;2022-12-15T10:48:57;100547.0;;;5.94;54.64
32452;BME280;45528;52.102;5.242;2022-12-15T10:52:22;100544.0;;;5.98;54.68
32452;BME280;45528;52.102;5.242;2022-12-15T10:54:08;100543.0;;;5.86;55.21
32452;BME280;45528;52.102;5.242;2022-12-15T10:55:46;100537.0;;;5.7;55.97
32452;BME280;45528;52.102;5.242;2022-12-15T10:57:24;100537.0;;;5.93;54.78
32452;BME280;45528;52.102;5.242;2022-12-15T11:01:05;100543.0;;;6.04;54.66
32452;BME280;45528;52.102;5.242;2022-12-15T11:02:43;100540.0;;;5.88;55.12
32452;BME280;45528;52.102;5.242;2022-12-15T11:04:25;100538.0;;;6.03;54.67
32452;BME280;45528;52.102;5.242;2022-12-15T11:06:11;100539.0;;;6.02;54.98
32452;BME280;45528;52.102;5.242;2022-12-15T11:07:52;100535.0;;;6.1;55.07
32452;BME280;45528;52.102;5.242;2022-12-15T11:13:09;100533.0;;;6.22;54.9
32452;BME280;45528;52.102;5.242;2022-12-15T11:14:55;100527.0;;;6.3;54.94
32452;BME280;45528;52.102;5.242;2022-12-15T11:16:32;100531.0;;;6.4;54.95
32452;BME280;45528;52.102;5.242;2022-12-15T11:18:23;100527.0;;;6.34;55.34
32452;BME280;45528;52.102;5.242;2022-12-15T11:20:05;100528.0;;;6.44;55.41
32452;BME280;45528;52.102;5.242;2022-12-15T11:23:46;100530.0;;;6.49;55.5
32452;BME280;45528;52.102;5.242;2022-12-15T11:25:37;100528.0;;;6.56;55.28
32452;BME280;45528;52.102;5.242;2022-12-15T11:27:23;100528.0;;;6.51;55.83
32452;BME280;45528;52.102;5.242;2022-12-15T11:29:14;100526.0;;;6.65;55.77
32452;BME280;45528;52.102;5.242;2022-12-15T11:30:58;100525.0;;;6.78;56.03
32452;BME280;45528;52.102;5.242;2022-12-15T11:32:42;100525.0;;;7.08;55.15
32452;BME280;45528;52.102;5.242;2022-12-15T11:36:09;100527.0;;;7.15;54.83
32452;BME280;45528;52.102;5.242;2022-12-15T11:37:55;100535.0;;;7.17;54.46
32452;BME280;45528;52.102;5.242;2022-12-15T11:39:48;100530.0;;;7.2;54.76
32452;BME280;45528;52.102;5.242;2022-12-15T11:42:21;100532.0;;;7.35;54.78
32452;BME280;45528;52.102;5.242;2022-12-15T11:44:17;100526.0;;;7.31;54.46
32452;BME280;45528;52.102;5.242;2022-12-15T11:46:10;100522.0;;;7.45;54.06
32452;BME280;45528;52.102;5.242;2022-12-15T11:47:58;100523.0;;;7.4;54.55
32452;BME280;45528;52.102;5.242;2022-12-15T11:49:51;100518.0;;;7.41;54.44
32452;BME280;45528;52.102;5.242;2022-12-15T11:52:34;100521.0;;;7.44;54.45
32452;BME280;45528;52.102;5.242;2022-12-15T11:54:27;100519.0;;;7.37;54.04
32452;BME280;45528;52.102;5.242;2022-12-15T11:56:15;100524.0;;;7.44;54.16
32452;BME280;45528;52.102;5.242;2022-12-15T11:58:05;100521.0;;;7.35;54.37
32452;BME280;45528;52.102;5.242;2022-12-15T12:00:03;100522.0;;;7.19;54.93
32452;BME280;45528;52.102;5.242;2022-12-15T12:03:43;100527.0;;;7.32;54.67
32452;BME280;45528;52.102;5.242;2022-12-15T12:05:36;100530.0;;;7.29;54.83
32452;BME280;45528;52.102;5.242;2022-12-15T12:07:22;100530.0;;;7.24;54.89
32452;BME280;45528;52.102;5.242;2022-12-15T12:09:27;100530.0;;;7.27;54.81
32452;BME280;45528;52.102;5.242;2022-12-15T12:11:11;100525.0;;;7.19;54.73
32452;BME280;45528;52.102;5.242;2022-12-15T12:12:57;100524.0;;;7.13;55.01
32452;BME280;45528;52.102;5.242;2022-12-15T12:14:44;100521.0;;;7.01;55.27
32452;BME280;45528;52.102;5.242;2022-12-15T12:18:17;100524.0;;;7.04;55.32
32452;BME280;45528;52.102;5.242;2022-12-15T12:19:57;100520.0;;;7.01;55.52
32452;BME280;45528;52.102;5.242;2022-12-15T12:21:38;100514.0;;;7.1;55.38
32452;BME280;45528;52.102;5.242;2022-12-15T12:23:22;100512.0;;;7.04;55.51
32452;BME280;45528;52.102;5.242;2022-12-15T12:25:04;100511.0;;;7.09;55.33
32452;BME280;45528;52.102;5.242;2022-12-15T12:28:39;100512.0;;;7.01;55.44
32452;BME280;45528;52.102;5.242;2022-12-15T12:30:21;100507.0;;;7.02;55.64
32452;BME280;45528;52.102;5.242;2022-12-15T12:32:04;100509.0;;;7.09;55.64
32452;BME280;45528;52.102;5.242;2022-12-15T12:33:44;100505.0;;;7.05;55.71
32452;BME280;45528;52.102;5.242;2022-12-15T12:37:13;100505.0;;;7.09;55.58
32452;BME280;45528;52.102;5.242;2022-12-15T12:38:58;100501.0;;;7.07;55.9
32452;BME280;45528;52.102;5.242;2022-12-15T12:40:47;100501.0;;;7.14;55.98
32452;BME280;45528;52.102;5.242;2022-12-15T12:42:32;100500.0;;;7.15;55.9
32452;BME280;45528;52.102;5.242;2022-12-15T12:44:18;100501.0;;;7.21;56.19
32452;BME280;45528;52.102;5.242;2022-12-15T12:46:08;100503.0;;;7.24;56.1
32452;BME280;45528;52.102;5.242;2022-12-15T12:49:34;100500.0;;;7.48;55.79
32452;BME280;45528;52.102;5.242;2022-12-15T12:51:20;100501.0;;;7.51;55.71
32452;BME280;45528;52.102;5.242;2022-12-15T12:53:23;100494.0;;;7.4;56.19
32452;BME280;45528;52.102;5.242;2022-12-15T12:55:16;100493.0;;;7.52;55.87
32452;BME280;45528;52.102;5.242;2022-12-15T12:57:01;100489.0;;;7.49;55.89
32452;BME280;45528;52.102;5.242;2022-12-15T12:59:35;100487.0;;;7.57;55.7
32452;BME280;45528;52.102;5.242;2022-12-15T13:01:25;100484.0;;;7.38;56.51
32452;BME280;45528;52.102;5.242;2022-12-15T13:03:16;100480.0;;;7.58;56.07
32452;BME280;45528;52.102;5.242;2022-12-15T13:05:00;100474.0;;;7.57;56.04
32452;BME280;45528;52.102;5.242;2022-12-15T13:07:00;100476.0;;;7.6;56.02
32452;BME280;45528;52.102;5.242;2022-12-15T13:10:26;100467.0;;;7.57;56.22
32452;BME280;45528;52.102;5.242;2022-12-15T13:12:02;100470.0;;;7.59;56.15
32452;BME280;45528;52.102;5.242;2022-12-15T13:13:42;100465.0;;;7.78;55.97
32452;BME280;45528;52.102;5.242;2022-12-15T13:15:39;100467.0;;;7.76;56.01
32452;BME280;45528;52.102;5.242;2022-12-15T13:17:26;100467.0;;;7.77;56.06
32452;BME280;45528;52.102;5.242;2022-12-15T13:20:44;100470.0;;;7.83;55.94
32452;BME280;45528;52.102;5.242;2022-12-15T13:22:22;100472.0;;;7.88;55.58
32452;BME280;45528;52.102;5.242;2022-12-15T13:24:17;100470.0;;;7.89;55.73
32452;BME280;45528;52.102;5.242;2022-12-15T13:26:11;100468.0;;;7.85;56.02
32452;BME280;45528;52.102;5.242;2022-12-15T13:27:50;100469.0;;;7.85;55.87
32452;BME280;45528;52.102;5.242;2022-12-15T13:31:23;100470.0;;;7.91;56.2
32452;BME280;45528;52.102;5.242;2022-12-15T13:33:15;100464.0;;;7.94;56.22
32452;BME280;45528;52.102;5.242;2022-12-15T13:34:51;100459.0;;;7.91;56.16